createdAt,value
2022-08-28T00:04:33.884Z,1.77
2022-08-28T00:09:58.957Z,1.70
2022-08-28T00:15:27.798Z,2.00
2022-08-28T00:20:53.499Z,2.21
2022-08-28T00:26:18.282Z,2.39
2022-08-28T00:31:46.860Z,2.31
2022-08-28T00:37:14.014Z,2.75
2022-08-28T00:42:35.909Z,2.45
2022-08-28T00:48:01.345Z,2.51
2022-08-28T00:53:23.573Z,2.46
2022-08-28T00:58:50.104Z,2.22
2022-08-28T01:04:16.437Z,2.26
2022-08-28T01:09:39.087Z,2.07
2022-08-28T01:15:03.976Z,1.85
2022-08-28T01:20:32.107Z,1.92
2022-08-28T01:25:56.098Z,2.09
2022-08-28T01:31:22.933Z,2.08
2022-08-28T01:36:47.855Z,1.75
2022-08-28T01:42:15.221Z,2.07
2022-08-28T01:47:55.349Z,1.92
2022-08-28T01:53:19.684Z,1.45
2022-08-28T01:58:43.739Z,1.67
2022-08-28T02:04:10.636Z,1.50
2022-08-28T02:09:38.733Z,1.61
2022-08-28T02:15:07.321Z,1.49
2022-08-28T02:20:32.103Z,1.42
2022-08-28T02:25:55.725Z,1.49
2022-08-28T02:31:21.996Z,1.47
2022-08-28T02:36:48.302Z,1.85
2022-08-28T02:42:20.788Z,1.70
2022-08-28T02:47:48.454Z,1.51
2022-08-28T02:53:16.628Z,1.40
2022-08-28T02:58:43.821Z,1.50
2022-08-28T03:04:11.968Z,1.68
2022-08-28T03:09:38.792Z,1.63
2022-08-28T03:15:04.612Z,1.31
2022-08-28T03:20:36.578Z,1.63
2022-08-28T03:26:03.743Z,1.47
2022-08-28T03:31:29.872Z,1.35
2022-08-28T03:36:56.360Z,1.46
2022-08-28T03:42:18.392Z,1.88
2022-08-28T03:47:40.462Z,1.46
2022-08-28T03:53:11.592Z,1.60
2022-08-28T03:58:38.892Z,1.36
2022-08-28T04:04:06.725Z,1.53
2022-08-28T04:09:33.780Z,1.34
2022-08-28T04:15:00.590Z,1.50
2022-08-28T04:20:25.782Z,1.38
2022-08-28T04:25:52.526Z,1.33
2022-08-28T04:31:17.449Z,1.40
2022-08-28T04:36:42.716Z,1.54
2022-08-28T04:42:10.828Z,1.45
2022-08-28T04:47:32.636Z,1.68
2022-08-28T04:52:54.043Z,1.30
2022-08-28T04:58:16.061Z,1.15
2022-08-28T05:03:37.622Z,1.39
2022-08-28T05:09:01.432Z,1.29
2022-08-28T05:14:22.942Z,1.25
2022-08-28T05:19:44.671Z,1.55
2022-08-28T05:25:10.851Z,1.92
2022-08-28T05:30:37.303Z,1.27
2022-08-28T05:36:02.027Z,1.22
2022-08-28T05:41:28.756Z,1.30
2022-08-28T05:46:57.695Z,1.54
2022-08-28T05:52:20.298Z,1.59
2022-08-28T05:57:43.837Z,1.53
2022-08-28T06:03:10.793Z,1.43
2022-08-28T06:08:56.414Z,1.31
2022-08-28T06:14:16.206Z,1.22
2022-08-28T06:19:42.252Z,1.22
2022-08-28T06:25:08.961Z,1.22
2022-08-28T06:31:18.515Z,1.29
2022-08-28T06:36:20.710Z,1.25
2022-08-28T06:41:42.552Z,1.70
2022-08-28T06:47:04.673Z,1.11
2022-08-28T06:52:33.264Z,1.27
2022-08-28T06:57:59.699Z,1.57
2022-08-28T07:03:22.975Z,1.42
2022-08-28T07:08:48.358Z,1.31
2022-08-28T07:14:15.164Z,1.44
2022-08-28T07:19:42.394Z,1.55
2022-08-28T07:25:04.783Z,1.31
2022-08-28T07:30:32.037Z,1.28
2022-08-28T07:35:58.182Z,1.48
2022-08-28T07:41:27.862Z,1.61
2022-08-28T07:46:53.720Z,1.77
2022-08-28T07:52:18.831Z,1.59
2022-08-28T07:57:45.062Z,1.32
2022-08-28T08:03:13.090Z,1.37
2022-08-28T08:08:41.409Z,1.87
2022-08-28T08:14:09.589Z,1.32
2022-08-28T08:19:37.285Z,1.48
2022-08-28T08:25:04.862Z,1.21
2022-08-28T08:30:31.927Z,1.49
2022-08-28T08:36:00.457Z,1.46
2022-08-28T08:41:28.319Z,1.66
2022-08-28T08:46:55.508Z,1.39
2022-08-28T08:52:22.750Z,1.56
2022-08-28T08:57:57.107Z,1.56
2022-08-28T09:03:25.285Z,1.75
2022-08-28T09:08:58.014Z,1.31
2022-08-28T09:14:26.947Z,1.65
2022-08-28T09:19:51.221Z,1.77
2022-08-28T09:25:17.265Z,2.67
2022-08-28T09:31:06.050Z,1.77
2022-08-28T09:36:33.759Z,1.73
2022-08-28T09:41:55.306Z,1.79
2022-08-28T09:47:26.756Z,1.92
2022-08-28T09:53:03.369Z,1.76
2022-08-28T09:58:40.634Z,1.61
2022-08-28T10:04:08.481Z,1.46
2022-08-28T10:09:48.179Z,1.64
2022-08-28T10:15:10.286Z,1.42
2022-08-28T10:20:37.141Z,1.45
2022-08-28T10:26:04.977Z,1.49
2022-08-28T10:31:38.622Z,1.65
2022-08-28T10:37:07.893Z,1.77
2022-08-28T10:42:38.281Z,1.31
2022-08-28T10:48:01.596Z,1.63
2022-08-28T10:53:29.888Z,1.88
2022-08-28T10:58:56.454Z,1.54
2022-08-28T11:04:25.244Z,1.50
2022-08-28T11:09:42.177Z,1.60
2022-08-28T11:15:04.445Z,1.48
2022-08-28T11:20:57.219Z,1.54
2022-08-28T11:26:20.503Z,1.88
2022-08-28T11:31:45.730Z,1.75
2022-08-28T11:37:07.595Z,1.52
2022-08-28T11:42:30.248Z,1.51
2022-08-28T11:47:54.640Z,1.73
2022-08-28T11:53:18.029Z,1.45
2022-08-28T11:58:54.182Z,1.44
2022-08-28T12:04:17.509Z,1.42
2022-08-28T12:09:39.233Z,1.59
2022-08-28T12:15:02.213Z,1.58
2022-08-28T12:20:27.299Z,1.46
2022-08-28T12:26:13.812Z,1.69
2022-08-28T12:31:38.053Z,1.39
2022-08-28T12:37:29.148Z,1.58
2022-08-28T12:42:55.461Z,1.69
2022-08-28T12:48:18.145Z,1.22
2022-08-28T12:53:44.606Z,1.32
2022-08-28T12:59:12.940Z,1.39
2022-08-28T13:04:41.587Z,1.57
2022-08-28T13:10:08.648Z,1.26
2022-08-28T13:15:36.871Z,1.78
2022-08-28T13:21:12.199Z,1.53
2022-08-28T13:26:51.636Z,1.77
2022-08-28T13:32:23.762Z,1.36
2022-08-28T13:37:46.679Z,1.28
2022-08-28T13:43:14.998Z,1.41
2022-08-28T13:48:40.710Z,1.50
2022-08-28T13:54:08.739Z,2.51
2022-08-28T13:59:35.766Z,1.62
2022-08-28T14:05:03.678Z,1.46
2022-08-28T14:10:32.094Z,1.86
2022-08-28T14:15:57.766Z,1.50
2022-08-28T14:21:27.481Z,1.42
2022-08-28T14:26:55.170Z,1.46
2022-08-28T14:32:17.420Z,1.59
2022-08-28T14:37:47.725Z,1.50
2022-08-28T14:43:15.571Z,1.62
2022-08-28T14:48:40.887Z,1.59
2022-08-28T14:54:08.946Z,1.48
2022-08-28T14:59:36.685Z,1.47
2022-08-28T15:05:03.238Z,1.30
2022-08-28T15:10:28.340Z,1.48
2022-08-28T15:15:53.264Z,1.33
2022-08-28T15:21:19.573Z,1.76
2022-08-28T15:26:50.256Z,1.78
2022-08-28T15:32:16.525Z,1.35
2022-08-28T15:37:41.036Z,1.32
2022-08-28T15:43:08.212Z,1.63
2022-08-28T15:48:32.211Z,1.35
2022-08-28T15:53:56.703Z,1.32
2022-08-28T15:59:21.009Z,1.70
2022-08-28T16:04:48.107Z,1.73
2022-08-28T16:10:16.426Z,1.55
2022-08-28T16:15:44.503Z,1.59
2022-08-28T16:21:11.771Z,1.35
2022-08-28T16:26:38.785Z,1.64
2022-08-28T16:32:04.602Z,1.74
2022-08-28T16:37:36.282Z,1.10
2022-08-28T16:42:59.056Z,1.37
2022-08-28T16:48:21.722Z,1.51
2022-08-28T16:53:48.967Z,1.78
2022-08-28T16:59:16.018Z,1.19
2022-08-28T17:04:43.898Z,1.47
2022-08-28T17:10:11.894Z,1.98
2022-08-28T17:15:39.573Z,1.41
2022-08-28T17:21:06.759Z,1.79
2022-08-28T17:26:33.877Z,1.51
2022-08-28T17:32:02.082Z,1.64
2022-08-28T17:37:30.049Z,1.69
2022-08-28T17:42:55.326Z,1.50
2022-08-28T17:48:17.425Z,1.71
2022-08-28T17:53:42.471Z,2.12
2022-08-28T17:59:09.747Z,1.74
2022-08-28T18:04:36.364Z,1.76
2022-08-28T18:10:04.109Z,1.94
2022-08-28T18:15:30.761Z,3.06
2022-08-28T18:21:01.799Z,2.25
2022-08-28T18:26:27.494Z,1.57
2022-08-28T18:31:49.563Z,1.89
2022-08-28T18:37:17.140Z,1.98
2022-08-28T18:42:45.024Z,1.90
2022-08-28T18:48:11.936Z,1.69
2022-08-28T18:53:39.017Z,1.71
2022-08-28T18:59:02.394Z,2.29
2022-08-28T19:04:30.357Z,1.85
2022-08-28T19:09:58.300Z,2.19
2022-08-28T19:15:22.624Z,2.14
2022-08-28T19:20:48.096Z,1.82
2022-08-28T19:26:19.291Z,1.74
2022-08-28T19:31:41.004Z,1.42
2022-08-28T19:37:21.009Z,2.37
2022-08-28T19:42:48.033Z,1.86
2022-08-28T19:48:11.574Z,1.85
2022-08-28T19:53:39.347Z,1.71
2022-08-28T19:59:05.823Z,1.83
2022-08-28T20:04:27.571Z,2.00
2022-08-28T20:09:55.105Z,2.08
2022-08-28T20:15:21.537Z,1.91
2022-08-28T20:20:45.749Z,2.01
2022-08-28T20:26:13.115Z,2.10
2022-08-28T20:31:40.571Z,2.33
2022-08-28T20:37:02.211Z,1.99
2022-08-28T20:42:31.784Z,2.00
2022-08-28T20:47:57.220Z,1.41
2022-08-28T20:53:36.915Z,1.70
2022-08-28T20:58:49.344Z,1.50
2022-08-28T21:04:14.658Z,1.27
2022-08-28T21:10:05.088Z,1.81
2022-08-28T21:15:07.819Z,1.85
2022-08-28T21:20:32.068Z,1.34
2022-08-28T21:25:57.217Z,1.37
2022-08-28T21:31:26.987Z,1.36
2022-08-28T21:36:52.284Z,1.54
2022-08-28T21:42:21.546Z,1.31
2022-08-28T21:47:45.858Z,1.05
2022-08-28T21:53:14.166Z,1.42
2022-08-28T21:58:40.562Z,1.08
2022-08-28T22:04:08.116Z,0.93
2022-08-28T22:09:32.460Z,1.46
2022-08-28T22:14:56.478Z,0.97
2022-08-28T22:20:19.647Z,0.98
2022-08-28T22:25:45.385Z,0.88
2022-08-28T22:31:10.374Z,1.04
2022-08-28T22:36:38.045Z,1.13
2022-08-28T22:42:04.058Z,1.23
2022-08-28T22:47:31.805Z,0.87
2022-08-28T22:52:53.714Z,1.38
2022-08-28T22:58:15.737Z,1.17
2022-08-28T23:03:43.471Z,0.95
2022-08-28T23:09:09.663Z,1.26
2022-08-28T23:14:37.505Z,1.30
2022-08-28T23:20:03.627Z,1.44
2022-08-28T23:25:26.917Z,1.40
2022-08-28T23:30:49.979Z,1.40
2022-08-28T23:36:14.823Z,1.18
2022-08-28T23:41:42.599Z,1.29
2022-08-28T23:47:07.845Z,1.40
2022-08-28T23:52:31.595Z,1.38
2022-08-28T23:57:56.160Z,1.32
